createdAt,value
2023-04-02T00:00:29.443Z,100.00
2023-04-02T00:01:36.996Z,100.00
2023-04-02T00:02:33.922Z,100.00
2023-04-02T00:03:46.012Z,100.00
2023-04-02T00:04:42.903Z,100.00
2023-04-02T00:05:54.889Z,100.00
2023-04-02T00:07:30.215Z,98.61
2023-04-02T00:08:38.991Z,98.62
2023-04-02T00:09:39.239Z,98.13
2023-04-02T00:10:53.267Z,98.70
2023-04-02T00:11:55.905Z,99.47
2023-04-02T00:13:10.994Z,99.25
2023-04-02T00:14:17.554Z,98.08
2023-04-02T00:15:17.652Z,97.77
2023-04-02T00:16:23.312Z,97.02
2023-04-02T00:17:24.700Z,95.35
2023-04-02T00:18:22.869Z,96.73
2023-04-02T00:19:36.028Z,95.84
2023-04-02T00:20:38.792Z,95.15
2023-04-02T00:21:39.870Z,94.74
2023-04-02T00:22:44.642Z,94.92
2023-04-02T00:23:44.243Z,94.01
2023-04-02T00:25:01.226Z,95.54
2023-04-02T00:25:58.175Z,94.73
2023-04-02T00:26:56.072Z,95.18
2023-04-02T00:27:52.958Z,95.58
2023-04-02T00:28:51.524Z,94.48
2023-04-02T00:29:50.762Z,94.14
2023-04-02T00:30:52.946Z,94.84
2023-04-02T00:31:54.857Z,97.42
2023-04-02T00:32:52.615Z,99.69
2023-04-02T00:33:50.659Z,100.00
2023-04-02T00:34:47.584Z,100.00
2023-04-02T00:35:45.063Z,100.00
2023-04-02T00:36:44.348Z,100.00
2023-04-02T00:37:42.314Z,100.00
2023-04-02T00:38:43.763Z,100.00
2023-04-02T00:39:41.579Z,100.00
2023-04-02T00:40:39.871Z,100.00
2023-04-02T00:41:38.844Z,100.00
2023-04-02T00:42:40.204Z,98.25
2023-04-02T00:43:39.686Z,96.19
2023-04-02T00:44:43.246Z,95.44
2023-04-02T00:45:41.481Z,94.76
2023-04-02T00:46:49.623Z,95.38
2023-04-02T00:47:46.530Z,94.84
2023-04-02T00:48:59.166Z,94.20
2023-04-02T00:50:02.605Z,93.66
2023-04-02T00:51:28.682Z,94.63
2023-04-02T00:52:30.736Z,93.67
2023-04-02T00:53:31.045Z,93.92
2023-04-02T00:54:32.754Z,93.42
2023-04-02T00:55:41.851Z,93.34
2023-04-02T00:56:46.386Z,93.37
2023-04-02T00:57:45.288Z,93.68
2023-04-02T00:58:44.748Z,93.00
2023-04-02T01:00:19.784Z,93.73
2023-04-02T01:01:20.202Z,94.13
2023-04-02T01:02:19.815Z,94.46
2023-04-02T01:03:16.823Z,95.58
2023-04-02T01:04:34.856Z,94.38
2023-04-02T01:05:36.058Z,94.70
2023-04-02T01:06:38.885Z,94.60
2023-04-02T01:07:44.716Z,94.05
2023-04-02T01:08:56.889Z,93.25
2023-04-02T01:10:11.786Z,92.08
2023-04-02T01:11:39.445Z,92.72
2023-04-02T01:12:53.955Z,94.32
2023-04-02T01:14:18.268Z,94.11
2023-04-02T01:15:30.692Z,94.22
2023-04-02T01:16:30.889Z,93.39
2023-04-02T01:17:36.653Z,93.15
2023-04-02T01:18:46.503Z,92.82
2023-04-02T01:20:19.726Z,93.29
2023-04-02T01:21:44.019Z,95.09
2023-04-02T01:23:08.099Z,99.36
2023-04-02T01:24:08.740Z,100.00
2023-04-02T01:25:06.587Z,100.00
2023-04-02T01:26:27.360Z,100.00
2023-04-02T01:27:42.376Z,100.00
2023-04-02T01:29:02.855Z,100.00
2023-04-02T01:30:07.319Z,100.00
2023-04-02T01:31:05.206Z,100.00
2023-04-02T01:32:10.871Z,100.00
2023-04-02T01:33:07.845Z,100.00
2023-04-02T01:34:09.633Z,100.00
2023-04-02T01:35:09.247Z,100.00
2023-04-02T01:36:18.514Z,100.00
2023-04-02T01:37:34.210Z,100.00
2023-04-02T01:38:56.980Z,100.00
2023-04-02T01:40:27.834Z,100.00
2023-04-02T01:41:39.591Z,100.00
2023-04-02T01:43:19.999Z,100.00
2023-04-02T01:44:29.686Z,100.00
2023-04-02T01:45:27.126Z,100.00
2023-04-02T01:46:30.548Z,100.00
2023-04-02T01:47:29.033Z,100.00
2023-04-02T01:48:30.431Z,100.00
2023-04-02T01:49:27.377Z,100.00
2023-04-02T01:50:37.297Z,100.00
2023-04-02T01:51:39.562Z,100.00
2023-04-02T01:52:43.261Z,100.00
2023-04-02T01:53:40.313Z,100.00
2023-04-02T01:54:37.957Z,100.00
2023-04-02T01:55:48.980Z,100.00
2023-04-02T01:56:47.396Z,100.00
2023-04-02T01:57:52.484Z,100.00
2023-04-02T01:58:50.099Z,100.00
2023-04-02T01:59:47.084Z,100.00
2023-04-02T02:00:51.128Z,100.00
2023-04-02T02:02:05.698Z,100.00
2023-04-02T02:03:03.909Z,100.00
2023-04-02T02:04:02.746Z,100.00
2023-04-02T02:04:59.711Z,100.00
2023-04-02T02:05:58.179Z,100.00
2023-04-02T02:06:58.673Z,100.00
2023-04-02T02:07:58.440Z,100.00
2023-04-02T02:09:04.410Z,100.00
2023-04-02T02:10:01.689Z,100.00
2023-04-02T02:10:59.254Z,100.00
2023-04-02T02:11:58.935Z,100.00
2023-04-02T02:12:59.337Z,100.00
2023-04-02T02:14:00.111Z,100.00
2023-04-02T02:14:56.944Z,100.00
2023-04-02T02:16:00.994Z,100.00
2023-04-02T02:17:02.941Z,100.00
2023-04-02T02:18:05.965Z,100.00
2023-04-02T02:19:05.159Z,100.00
2023-04-02T02:20:11.015Z,100.00
2023-04-02T02:21:10.753Z,100.00
2023-04-02T02:22:28.508Z,100.00
2023-04-02T02:23:29.906Z,100.00
2023-04-02T02:24:33.443Z,100.00
2023-04-02T02:25:37.003Z,100.00
2023-04-02T02:26:36.427Z,100.00
2023-04-02T02:27:51.217Z,100.00
2023-04-02T02:28:55.352Z,100.00
2023-04-02T02:29:54.136Z,100.00
2023-04-02T02:30:59.011Z,100.00
2023-04-02T02:31:59.897Z,100.00
2023-04-02T02:33:21.741Z,100.00
2023-04-02T02:34:26.436Z,100.00
2023-04-02T02:35:30.937Z,100.00
2023-04-02T02:36:35.041Z,100.00
2023-04-02T02:37:40.763Z,100.00
2023-04-02T02:38:47.786Z,100.00
2023-04-02T02:39:52.109Z,100.00
2023-04-02T02:40:57.849Z,100.00
2023-04-02T02:42:02.448Z,100.00
2023-04-02T02:43:06.379Z,100.00
2023-04-02T02:44:08.770Z,100.00
2023-04-02T02:45:14.982Z,100.00
2023-04-02T02:46:20.691Z,100.00
2023-04-02T02:47:31.418Z,100.00
2023-04-02T02:48:38.376Z,100.00
2023-04-02T02:49:53.270Z,100.00
2023-04-02T02:50:51.682Z,100.00
2023-04-02T02:51:58.271Z,100.00
2023-04-02T02:52:57.904Z,100.00
2023-04-02T02:54:02.205Z,100.00
2023-04-02T02:55:05.134Z,100.00
2023-04-02T02:56:02.759Z,100.00
2023-04-02T02:57:07.680Z,100.00
2023-04-02T02:58:19.515Z,100.00
2023-04-02T02:59:19.061Z,100.00
2023-04-02T03:00:19.839Z,100.00
2023-04-02T03:01:18.847Z,100.00
2023-04-02T03:02:16.451Z,100.00
2023-04-02T03:03:28.169Z,100.00
2023-04-02T03:04:25.816Z,100.00
2023-04-02T03:05:27.978Z,100.00
2023-04-02T03:06:25.005Z,100.00
2023-04-02T03:07:25.722Z,100.00
2023-04-02T03:08:34.000Z,100.00
2023-04-02T03:09:52.598Z,100.00
2023-04-02T03:11:02.576Z,100.00
2023-04-02T03:12:16.365Z,100.00
2023-04-02T03:13:25.670Z,100.00
2023-04-02T03:14:44.223Z,100.00
2023-04-02T03:16:02.904Z,100.00
2023-04-02T03:17:35.877Z,100.00
2023-04-02T03:19:00.419Z,100.00
2023-04-02T03:20:14.618Z,100.00
2023-04-02T03:21:39.740Z,100.00
2023-04-02T03:23:05.933Z,100.00
2023-04-02T03:24:09.601Z,100.00
2023-04-02T03:25:31.357Z,100.00
2023-04-02T03:26:41.162Z,100.00
2023-04-02T03:27:44.400Z,100.00
2023-04-02T03:28:55.670Z,100.00
2023-04-02T03:30:13.974Z,100.00
2023-04-02T03:31:17.189Z,100.00
2023-04-02T03:32:26.093Z,100.00
2023-04-02T03:33:40.187Z,100.00
2023-04-02T03:35:13.907Z,100.00
2023-04-02T03:36:31.707Z,100.00
2023-04-02T03:37:43.392Z,100.00
2023-04-02T03:38:57.898Z,100.00
2023-04-02T03:40:11.242Z,100.00
2023-04-02T03:41:19.793Z,100.00
2023-04-02T03:42:26.112Z,100.00
2023-04-02T03:43:32.300Z,100.00
2023-04-02T03:44:35.720Z,100.00
2023-04-02T03:45:42.115Z,100.00
2023-04-02T03:46:46.510Z,100.00
2023-04-02T03:47:52.457Z,100.00
2023-04-02T03:48:57.923Z,100.00
2023-04-02T03:50:12.325Z,100.00
2023-04-02T03:51:30.852Z,100.00
2023-04-02T03:52:29.387Z,100.00
2023-04-02T03:53:29.412Z,100.00
2023-04-02T03:54:26.495Z,100.00
2023-04-02T03:55:32.213Z,100.00
2023-04-02T03:56:40.170Z,100.00
2023-04-02T03:57:54.605Z,100.00
2023-04-02T03:59:05.041Z,100.00
2023-04-02T04:00:28.121Z,100.00
2023-04-02T04:01:34.547Z,100.00
2023-04-02T04:02:43.410Z,100.00
2023-04-02T04:03:47.203Z,100.00
2023-04-02T04:04:46.941Z,100.00
2023-04-02T04:05:58.947Z,100.00
2023-04-02T04:06:58.518Z,100.00
2023-04-02T04:08:01.420Z,100.00
2023-04-02T04:09:10.415Z,100.00
2023-04-02T04:10:19.485Z,100.00
2023-04-02T04:11:22.819Z,100.00
2023-04-02T04:12:40.901Z,100.00
2023-04-02T04:13:49.481Z,100.00
2023-04-02T04:14:58.134Z,100.00
2023-04-02T04:16:02.909Z,100.00
2023-04-02T04:17:09.558Z,100.00
2023-04-02T04:18:24.534Z,100.00
2023-04-02T04:19:55.049Z,100.00
2023-04-02T04:21:01.261Z,100.00
2023-04-02T04:22:34.676Z,100.00
2023-04-02T04:23:38.540Z,100.00
2023-04-02T04:24:39.345Z,100.00
2023-04-02T04:25:37.203Z,100.00
2023-04-02T04:26:40.396Z,100.00
2023-04-02T04:27:47.038Z,100.00
2023-04-02T04:29:16.828Z,100.00
2023-04-02T04:30:28.565Z,100.00
2023-04-02T04:31:38.924Z,100.00
2023-04-02T04:32:50.403Z,100.00
2023-04-02T04:33:54.971Z,100.00
2023-04-02T04:34:58.519Z,100.00
2023-04-02T04:36:00.167Z,100.00
2023-04-02T04:37:07.686Z,100.00
2023-04-02T04:38:34.615Z,100.00
2023-04-02T04:39:50.562Z,100.00
2023-04-02T04:40:54.254Z,100.00
2023-04-02T04:41:57.678Z,100.00
2023-04-02T04:43:01.307Z,100.00
2023-04-02T04:44:14.570Z,100.00
2023-04-02T04:45:36.114Z,100.00
2023-04-02T04:46:47.929Z,100.00
2023-04-02T04:48:08.224Z,100.00
2023-04-02T04:49:13.228Z,100.00
2023-04-02T04:50:28.934Z,100.00
2023-04-02T04:51:39.158Z,100.00
2023-04-02T04:52:42.733Z,100.00
2023-04-02T04:53:48.364Z,100.00
2023-04-02T04:54:46.773Z,100.00
2023-04-02T04:55:45.273Z,100.00
2023-04-02T04:56:52.553Z,100.00
2023-04-02T04:57:55.816Z,100.00
2023-04-02T04:58:56.496Z,100.00
2023-04-02T05:00:20.770Z,100.00
2023-04-02T05:01:33.928Z,100.00
2023-04-02T05:02:41.535Z,100.00
2023-04-02T05:04:11.155Z,100.00
2023-04-02T05:05:20.107Z,100.00
2023-04-02T05:06:43.476Z,100.00
2023-04-02T05:07:53.130Z,100.00
2023-04-02T05:08:55.856Z,100.00
2023-04-02T05:10:07.310Z,100.00
2023-04-02T05:11:13.458Z,100.00
2023-04-02T05:12:22.418Z,100.00
2023-04-02T05:13:30.936Z,100.00
2023-04-02T05:14:56.892Z,100.00
2023-04-02T05:16:15.585Z,100.00
2023-04-02T05:17:41.374Z,100.00
2023-04-02T05:18:51.657Z,100.00
2023-04-02T05:20:22.537Z,100.00
2023-04-02T05:21:34.347Z,100.00
2023-04-02T05:22:42.930Z,100.00
2023-04-02T05:23:50.898Z,98.43
2023-04-02T05:24:50.493Z,98.18
2023-04-02T05:26:14.494Z,97.51
2023-04-02T05:27:39.847Z,96.05
2023-04-02T05:28:39.620Z,96.95
2023-04-02T05:29:47.273Z,97.56
2023-04-02T05:31:03.528Z,98.20
2023-04-02T05:32:03.565Z,99.67
2023-04-02T05:33:07.995Z,100.00
2023-04-02T05:34:05.041Z,100.00
2023-04-02T05:35:06.526Z,99.04
2023-04-02T05:36:09.495Z,98.88
2023-04-02T05:37:13.674Z,98.45
2023-04-02T05:38:25.136Z,97.95
2023-04-02T05:39:24.376Z,95.49
2023-04-02T05:40:30.983Z,94.90
2023-04-02T05:41:40.129Z,92.87
2023-04-02T05:42:39.465Z,91.29
2023-04-02T05:43:45.475Z,90.48
2023-04-02T05:45:08.618Z,90.23
2023-04-02T05:46:24.067Z,91.31
2023-04-02T05:47:29.579Z,91.04
2023-04-02T05:48:40.517Z,90.92
2023-04-02T05:49:51.803Z,92.63
2023-04-02T05:50:54.293Z,94.12
2023-04-02T05:51:57.580Z,95.02
2023-04-02T05:53:09.589Z,93.56
2023-04-02T05:54:25.082Z,90.44
2023-04-02T05:55:27.939Z,92.26
2023-04-02T05:56:41.302Z,92.68
2023-04-02T05:57:59.087Z,93.43
2023-04-02T05:59:20.623Z,93.78
2023-04-02T06:00:47.753Z,93.00
2023-04-02T06:02:08.572Z,90.30
2023-04-02T06:03:27.629Z,91.51
2023-04-02T06:04:43.799Z,92.98
2023-04-02T06:05:46.125Z,92.69
2023-04-02T06:06:50.144Z,92.68
2023-04-02T06:08:17.350Z,92.35
2023-04-02T06:09:36.044Z,93.54
2023-04-02T06:10:43.222Z,92.36
2023-04-02T06:11:47.243Z,93.27
2023-04-02T06:12:46.881Z,93.84
2023-04-02T06:13:43.885Z,93.40
2023-04-02T06:14:40.803Z,94.64
2023-04-02T06:15:39.178Z,93.84
2023-04-02T06:16:38.500Z,92.49
2023-04-02T06:18:07.257Z,90.13
2023-04-02T06:19:16.657Z,89.63
2023-04-02T06:20:17.803Z,91.29
2023-04-02T06:21:18.607Z,90.34
2023-04-02T06:22:24.347Z,90.58
2023-04-02T06:23:31.313Z,92.78
2023-04-02T06:24:32.040Z,91.93
2023-04-02T06:25:39.451Z,93.17
2023-04-02T06:26:51.508Z,92.72
2023-04-02T06:27:51.928Z,92.77
2023-04-02T06:28:56.027Z,91.06
2023-04-02T06:29:59.903Z,92.37
2023-04-02T06:31:07.697Z,93.09
2023-04-02T06:32:08.357Z,93.12
2023-04-02T06:33:05.667Z,91.26
2023-04-02T06:34:04.963Z,92.19
2023-04-02T06:35:01.872Z,93.32
2023-04-02T06:36:01.665Z,93.03
2023-04-02T06:37:03.980Z,95.40
2023-04-02T06:38:05.784Z,93.71
2023-04-02T06:39:11.369Z,93.19
2023-04-02T06:40:26.218Z,92.17
2023-04-02T06:41:24.653Z,91.50
2023-04-02T06:42:34.270Z,92.00
2023-04-02T06:43:38.130Z,92.00
2023-04-02T06:44:38.108Z,89.61
2023-04-02T06:45:42.229Z,89.13
2023-04-02T06:46:45.667Z,89.81
2023-04-02T06:47:49.938Z,90.05
2023-04-02T06:48:50.746Z,90.84
2023-04-02T06:49:51.760Z,90.69
2023-04-02T06:50:53.640Z,88.82
2023-04-02T06:51:54.987Z,87.53
2023-04-02T06:53:06.531Z,86.64
2023-04-02T06:54:03.935Z,86.50
2023-04-02T06:55:14.500Z,84.36
2023-04-02T06:56:27.770Z,82.44
2023-04-02T06:57:24.836Z,82.20
2023-04-02T06:58:21.823Z,80.34
2023-04-02T06:59:20.360Z,80.73
2023-04-02T07:00:41.011Z,80.15
2023-04-02T07:02:18.280Z,75.05
2023-04-02T07:03:21.866Z,71.94
2023-04-02T07:04:21.919Z,71.75
2023-04-02T07:05:18.783Z,71.27
2023-04-02T07:06:18.290Z,71.30
2023-04-02T07:07:17.970Z,70.24
2023-04-02T07:08:17.895Z,70.68
2023-04-02T07:09:19.824Z,70.33
2023-04-02T07:10:16.953Z,70.75
2023-04-02T07:11:20.788Z,71.53
2023-04-02T07:12:23.860Z,71.56
2023-04-02T07:13:22.976Z,71.85
2023-04-02T07:14:19.707Z,71.38
2023-04-02T07:15:19.454Z,71.08
2023-04-02T07:16:19.894Z,70.22
2023-04-02T07:17:17.930Z,68.11
2023-04-02T07:18:32.532Z,67.12
2023-04-02T07:19:29.251Z,67.67
2023-04-02T07:20:28.178Z,66.15
2023-04-02T07:21:26.745Z,66.37
2023-04-02T07:22:23.757Z,65.13
2023-04-02T07:23:21.255Z,65.50
2023-04-02T07:24:18.043Z,66.33
2023-04-02T07:25:14.926Z,67.02
2023-04-02T07:26:18.841Z,65.94
2023-04-02T07:27:15.760Z,65.15
2023-04-02T07:28:14.890Z,64.32
2023-04-02T07:29:16.109Z,64.29
2023-04-02T07:30:13.074Z,64.49
2023-04-02T07:31:24.494Z,64.31
2023-04-02T07:32:21.296Z,62.15
2023-04-02T07:33:21.022Z,62.00
2023-04-02T07:34:17.796Z,61.40
2023-04-02T07:35:15.489Z,60.42
2023-04-02T07:36:21.359Z,59.83
2023-04-02T07:37:18.793Z,60.71
2023-04-02T07:38:18.434Z,60.55
2023-04-02T07:39:15.736Z,60.24
2023-04-02T07:40:19.426Z,60.14
2023-04-02T07:41:16.938Z,60.12
2023-04-02T07:42:13.910Z,58.92
2023-04-02T07:43:11.291Z,58.78
2023-04-02T07:44:11.405Z,59.03
2023-04-02T07:45:08.835Z,58.61
2023-04-02T07:46:06.610Z,58.64
2023-04-02T07:47:03.562Z,59.62
2023-04-02T07:48:08.691Z,59.39
2023-04-02T07:49:05.749Z,59.77
2023-04-02T07:50:04.655Z,58.56
2023-04-02T07:51:03.388Z,58.78
2023-04-02T07:52:01.217Z,58.45
2023-04-02T07:52:58.321Z,58.10
2023-04-02T07:53:56.210Z,57.44
2023-04-02T07:54:53.189Z,56.84
2023-04-02T07:55:53.026Z,57.24
2023-04-02T07:56:49.939Z,57.19
2023-04-02T07:57:54.286Z,57.04
2023-04-02T07:58:51.085Z,56.59
2023-04-02T07:59:48.104Z,56.04
2023-04-02T08:00:44.883Z,56.27
2023-04-02T08:01:43.116Z,54.99
2023-04-02T08:02:40.166Z,55.34
2023-04-02T08:03:37.085Z,54.33
2023-04-02T08:04:33.903Z,54.81
2023-04-02T08:05:30.854Z,54.56
2023-04-02T08:06:28.403Z,55.00
2023-04-02T08:07:27.747Z,55.92
2023-04-02T08:08:26.105Z,56.13
2023-04-02T08:09:22.817Z,57.42
2023-04-02T08:10:19.674Z,57.98
2023-04-02T08:11:16.877Z,58.46
2023-04-02T08:12:14.648Z,58.02
2023-04-02T08:13:12.022Z,58.17
2023-04-02T08:14:09.862Z,58.29
2023-04-02T08:15:07.459Z,58.23
2023-04-02T08:16:05.771Z,58.54
2023-04-02T08:17:02.690Z,59.02
2023-04-02T08:17:59.663Z,58.73
2023-04-02T08:18:56.615Z,58.75
2023-04-02T08:19:55.224Z,58.64
2023-04-02T08:20:53.483Z,58.43
2023-04-02T08:21:51.928Z,58.17
2023-04-02T08:22:50.615Z,58.10
2023-04-02T08:23:47.328Z,58.14
2023-04-02T08:24:44.104Z,57.95
2023-04-02T08:25:41.216Z,57.86
2023-04-02T08:26:38.107Z,57.92
2023-04-02T08:27:34.836Z,57.68
2023-04-02T08:28:31.776Z,57.93
2023-04-02T08:29:35.614Z,57.69
2023-04-02T08:30:32.585Z,57.24
2023-04-02T08:31:30.417Z,56.97
2023-04-02T08:32:29.063Z,57.63
2023-04-02T08:33:26.270Z,57.49
2023-04-02T08:34:23.108Z,56.97
2023-04-02T08:35:19.890Z,56.91
2023-04-02T08:36:18.609Z,57.66
2023-04-02T08:37:15.709Z,57.61
2023-04-02T08:38:17.738Z,57.21
2023-04-02T08:39:14.781Z,57.71
2023-04-02T08:40:27.423Z,58.33
2023-04-02T08:41:32.339Z,58.21
2023-04-02T08:42:43.072Z,57.86
2023-04-02T08:44:08.480Z,57.92
2023-04-02T08:45:37.943Z,57.25
2023-04-02T08:46:52.113Z,57.29
2023-04-02T08:47:51.903Z,56.57
2023-04-02T08:48:56.873Z,57.36
2023-04-02T08:50:02.856Z,56.70
2023-04-02T08:51:01.694Z,55.95
2023-04-02T08:51:59.901Z,56.10
2023-04-02T08:52:59.308Z,55.93
2023-04-02T08:54:02.306Z,56.54
2023-04-02T08:55:00.643Z,56.87
2023-04-02T08:56:05.808Z,57.41
2023-04-02T08:57:17.358Z,56.97
2023-04-02T08:58:27.922Z,56.74
2023-04-02T08:59:25.158Z,56.63
2023-04-02T09:00:29.964Z,56.61
2023-04-02T09:01:56.691Z,56.15
2023-04-02T09:03:06.325Z,56.02
2023-04-02T09:04:12.698Z,55.36
2023-04-02T09:05:20.761Z,55.59
2023-04-02T09:06:21.345Z,55.68
2023-04-02T09:07:18.504Z,55.61
2023-04-02T09:08:24.585Z,56.65
2023-04-02T09:09:23.824Z,55.64
2023-04-02T09:10:32.405Z,55.11
2023-04-02T09:12:02.986Z,54.52
2023-04-02T09:13:02.300Z,55.18
2023-04-02T09:14:03.451Z,54.78
2023-04-02T09:15:16.997Z,54.36
2023-04-02T09:16:21.409Z,54.12
2023-04-02T09:17:53.494Z,54.06
2023-04-02T09:18:54.191Z,54.13
2023-04-02T09:20:12.741Z,53.89
2023-04-02T09:21:21.915Z,54.70
2023-04-02T09:22:22.219Z,54.05
2023-04-02T09:23:23.443Z,53.91
2023-04-02T09:24:20.428Z,53.60
2023-04-02T09:25:31.411Z,53.80
2023-04-02T09:26:32.314Z,53.78
2023-04-02T09:27:35.152Z,54.19
2023-04-02T09:28:32.525Z,54.15
2023-04-02T09:29:43.852Z,54.38
2023-04-02T09:31:24.298Z,53.92
2023-04-02T09:32:42.392Z,53.37
2023-04-02T09:33:43.095Z,53.00
2023-04-02T09:34:39.928Z,52.88
2023-04-02T09:35:53.961Z,52.88
2023-04-02T09:36:52.929Z,52.91
2023-04-02T09:38:18.736Z,51.99
2023-04-02T09:39:22.376Z,51.63
2023-04-02T09:41:28.915Z,50.64
2023-04-02T09:42:35.103Z,50.76
2023-04-02T09:43:40.824Z,50.84
2023-04-02T09:44:44.973Z,50.81
2023-04-02T09:45:44.420Z,50.50
2023-04-02T09:46:54.537Z,51.44
2023-04-02T09:47:55.714Z,50.81
2023-04-02T09:49:01.549Z,51.37
2023-04-02T09:50:15.363Z,50.99
2023-04-02T09:51:21.742Z,50.68
2023-04-02T09:52:29.918Z,50.67
2023-04-02T09:53:36.757Z,50.12
2023-04-02T09:54:33.764Z,50.20
2023-04-02T09:55:31.329Z,50.30
2023-04-02T09:56:29.037Z,50.06
2023-04-02T09:57:28.070Z,49.81
2023-04-02T09:58:24.961Z,50.09
2023-04-02T09:59:22.124Z,49.98
2023-04-02T10:00:32.430Z,50.64
2023-04-02T10:01:35.242Z,50.08
2023-04-02T10:02:32.339Z,50.41
2023-04-02T10:03:33.187Z,50.27
2023-04-02T10:04:47.354Z,50.70
2023-04-02T10:05:46.779Z,50.63
2023-04-02T10:06:50.334Z,51.45
2023-04-02T10:07:51.361Z,51.05
2023-04-02T10:08:48.218Z,51.10
2023-04-02T10:09:44.942Z,52.13
2023-04-02T10:10:49.800Z,51.34
2023-04-02T10:11:47.074Z,51.18
2023-04-02T10:12:50.732Z,51.10
2023-04-02T10:14:18.061Z,51.34
2023-04-02T10:15:44.375Z,50.82
2023-04-02T10:16:56.821Z,50.30
2023-04-02T10:18:08.060Z,49.78
2023-04-02T10:19:21.096Z,49.54
2023-04-02T10:20:24.535Z,49.53
2023-04-02T10:21:32.551Z,49.49
2023-04-02T10:22:29.646Z,49.15
2023-04-02T10:23:30.999Z,48.73
2023-04-02T10:24:29.214Z,49.37
2023-04-02T10:25:34.723Z,49.82
2023-04-02T10:27:05.223Z,50.24
2023-04-02T10:28:19.509Z,49.77
2023-04-02T10:30:15.057Z,49.25
2023-04-02T10:31:33.750Z,49.48
2023-04-02T10:32:46.641Z,49.53
2023-04-02T10:33:51.358Z,49.27
2023-04-02T10:35:01.890Z,50.01
2023-04-02T10:36:22.771Z,50.33
2023-04-02T10:37:31.364Z,50.12
2023-04-02T10:38:38.798Z,49.52
2023-04-02T10:39:48.791Z,49.86
2023-04-02T10:40:58.731Z,49.19
2023-04-02T10:42:20.345Z,48.69
2023-04-02T10:44:16.689Z,49.18
2023-04-02T10:45:48.065Z,49.45
2023-04-02T10:47:01.531Z,49.95
2023-04-02T10:48:10.712Z,49.98
2023-04-02T10:49:17.452Z,49.76
2023-04-02T10:50:38.407Z,50.04
2023-04-02T10:52:04.331Z,50.29
2023-04-02T10:53:27.115Z,51.27
2023-04-02T10:54:32.639Z,50.39
2023-04-02T10:55:39.728Z,50.20
2023-04-02T10:56:44.472Z,49.36
2023-04-02T10:57:47.729Z,50.08
2023-04-02T10:59:05.576Z,49.26
2023-04-02T11:00:11.966Z,49.38
2023-04-02T11:01:17.927Z,48.14
2023-04-02T11:02:31.865Z,48.98
2023-04-02T11:03:40.010Z,49.00
2023-04-02T11:04:47.349Z,48.70
2023-04-02T11:05:54.279Z,48.73
2023-04-02T11:07:13.121Z,47.78
2023-04-02T11:08:20.568Z,48.18
2023-04-02T11:09:24.799Z,47.28
2023-04-02T11:10:22.367Z,47.87
2023-04-02T11:11:31.610Z,47.26
2023-04-02T11:12:43.165Z,46.94
2023-04-02T11:13:42.502Z,47.08
2023-04-02T11:14:41.081Z,47.60
2023-04-02T11:15:39.579Z,47.13
2023-04-02T11:16:39.430Z,47.33
2023-04-02T11:17:39.440Z,46.64
2023-04-02T11:18:37.394Z,47.24
2023-04-02T11:19:36.018Z,47.03
2023-04-02T11:20:50.912Z,46.43
2023-04-02T11:22:02.592Z,46.14
2023-04-02T11:23:18.813Z,46.83
2023-04-02T11:24:24.856Z,46.65
2023-04-02T11:25:23.210Z,46.44
2023-04-02T11:26:47.468Z,46.35
2023-04-02T11:27:44.395Z,46.52
2023-04-02T11:28:41.383Z,46.58
2023-04-02T11:29:49.081Z,46.40
2023-04-02T11:30:48.997Z,45.42
2023-04-02T11:31:46.779Z,45.74
2023-04-02T11:32:49.861Z,45.52
2023-04-02T11:33:48.845Z,45.74
2023-04-02T11:35:02.997Z,45.66
2023-04-02T11:36:02.553Z,46.05
2023-04-02T11:37:02.388Z,45.69
2023-04-02T11:38:21.220Z,45.73
2023-04-02T11:39:58.262Z,45.37
2023-04-02T11:40:59.484Z,45.13
2023-04-02T11:42:24.906Z,45.56
2023-04-02T11:43:33.636Z,45.17
2023-04-02T11:44:30.714Z,44.96
2023-04-02T11:45:27.444Z,44.44
2023-04-02T11:46:26.768Z,44.87
2023-04-02T11:47:25.550Z,44.61
2023-04-02T11:48:22.511Z,45.60
2023-04-02T11:49:56.257Z,45.21
2023-04-02T11:50:53.142Z,45.32
2023-04-02T11:51:56.608Z,45.12
2023-04-02T11:53:02.976Z,45.15
2023-04-02T11:53:59.777Z,45.31
2023-04-02T11:55:20.453Z,44.55
2023-04-02T11:56:27.827Z,45.04
2023-04-02T11:57:30.791Z,44.89
2023-04-02T11:58:30.742Z,45.32
2023-04-02T11:59:41.552Z,44.53
2023-04-02T12:01:34.863Z,44.89
2023-04-02T12:03:06.887Z,45.18
2023-04-02T12:04:32.905Z,44.98
2023-04-02T12:05:58.971Z,44.75
2023-04-02T12:07:17.582Z,45.27
2023-04-02T12:08:31.131Z,44.54
2023-04-02T12:09:44.806Z,44.88
2023-04-02T12:10:55.416Z,44.63
2023-04-02T12:11:59.474Z,44.75
2023-04-02T12:12:56.290Z,44.51
2023-04-02T12:13:54.566Z,44.21
2023-04-02T12:14:53.683Z,44.37
2023-04-02T12:15:52.706Z,43.59
2023-04-02T12:16:49.858Z,43.27
2023-04-02T12:17:46.922Z,44.15
2023-04-02T12:18:54.050Z,44.70
2023-04-02T12:19:54.976Z,44.46
2023-04-02T12:20:55.944Z,44.07
2023-04-02T12:21:53.616Z,44.48
2023-04-02T12:22:59.319Z,43.82
2023-04-02T12:23:59.629Z,44.71
2023-04-02T12:25:03.395Z,45.01
2023-04-02T12:26:03.907Z,45.29
2023-04-02T12:27:22.569Z,44.26
2023-04-02T12:28:20.130Z,44.84
2023-04-02T12:29:25.046Z,44.33
2023-04-02T12:30:23.631Z,44.67
2023-04-02T12:31:25.237Z,44.83
2023-04-02T12:32:29.554Z,43.64
2023-04-02T12:33:33.666Z,43.84
2023-04-02T12:34:31.114Z,44.68
2023-04-02T12:35:38.826Z,44.36
2023-04-02T12:36:36.140Z,44.15
2023-04-02T12:37:33.102Z,43.28
2023-04-02T12:38:34.005Z,43.96
2023-04-02T12:39:33.263Z,43.97
2023-04-02T12:40:30.062Z,43.13
2023-04-02T12:41:33.838Z,43.17
2023-04-02T12:42:36.500Z,43.20
2023-04-02T12:43:35.822Z,43.53
2023-04-02T12:44:32.907Z,42.73
2023-04-02T12:45:34.124Z,43.52
2023-04-02T12:46:33.749Z,43.13
2023-04-02T12:47:31.270Z,43.18
2023-04-02T12:48:31.245Z,43.70
2023-04-02T12:49:33.642Z,43.93
2023-04-02T12:50:30.763Z,43.65
2023-04-02T12:51:28.456Z,43.17
2023-04-02T12:52:28.963Z,43.15
2023-04-02T12:53:35.747Z,42.98
2023-04-02T12:54:38.157Z,43.12
2023-04-02T12:55:34.971Z,43.16
2023-04-02T12:56:31.958Z,42.75
2023-04-02T12:57:32.294Z,43.38
2023-04-02T12:58:39.718Z,43.67
2023-04-02T12:59:39.065Z,43.60
2023-04-02T13:00:36.869Z,43.18
2023-04-02T13:01:34.093Z,42.87
2023-04-02T13:02:43.744Z,42.54
2023-04-02T13:03:40.798Z,42.17
2023-04-02T13:04:47.826Z,42.32
2023-04-02T13:05:50.707Z,42.16
2023-04-02T13:06:58.496Z,42.44
2023-04-02T13:07:55.431Z,42.01
2023-04-02T13:08:52.505Z,42.70
2023-04-02T13:09:55.304Z,42.06
2023-04-02T13:10:56.230Z,42.43
2023-04-02T13:11:53.114Z,42.10
2023-04-02T13:13:03.111Z,42.01
2023-04-02T13:14:05.184Z,42.49
2023-04-02T13:15:31.582Z,42.35
2023-04-02T13:16:36.096Z,42.83
2023-04-02T13:17:46.850Z,42.30
2023-04-02T13:18:47.004Z,43.40
2023-04-02T13:19:43.880Z,42.27
2023-04-02T13:20:42.806Z,42.30
2023-04-02T13:21:39.553Z,42.43
2023-04-02T13:22:36.652Z,42.09
2023-04-02T13:23:36.659Z,41.53
2023-04-02T13:24:34.172Z,41.75
2023-04-02T13:25:36.673Z,42.31
2023-04-02T13:26:33.791Z,40.84
2023-04-02T13:27:30.632Z,40.58
2023-04-02T13:28:28.785Z,40.21
2023-04-02T13:29:31.224Z,40.43
2023-04-02T13:30:29.231Z,39.58
2023-04-02T13:31:26.546Z,40.66
2023-04-02T13:32:23.510Z,39.84
2023-04-02T13:33:20.530Z,40.04
2023-04-02T13:34:18.363Z,40.20
2023-04-02T13:35:15.758Z,39.92
2023-04-02T13:36:16.442Z,40.02
2023-04-02T13:37:13.421Z,40.23
2023-04-02T13:38:10.515Z,39.87
2023-04-02T13:39:07.605Z,39.93
2023-04-02T13:40:06.103Z,40.06
2023-04-02T13:41:04.041Z,40.83
2023-04-02T13:42:06.565Z,40.92
2023-04-02T13:43:05.116Z,40.44
2023-04-02T13:44:03.815Z,40.73
2023-04-02T13:45:00.720Z,40.43
2023-04-02T13:46:00.787Z,41.10
2023-04-02T13:46:58.392Z,41.01
2023-04-02T13:48:00.973Z,40.66
2023-04-02T13:48:59.174Z,40.84
2023-04-02T13:49:55.945Z,40.99
2023-04-02T13:50:53.289Z,40.33
2023-04-02T13:51:58.782Z,40.42
2023-04-02T13:53:00.135Z,40.93
2023-04-02T13:53:58.096Z,41.51
2023-04-02T13:55:01.307Z,41.75
2023-04-02T13:55:58.109Z,41.09
2023-04-02T13:56:57.050Z,41.53
2023-04-02T13:57:56.007Z,41.43
2023-04-02T13:58:53.063Z,41.40